Time;durP1;ratioP1;P1;durP2;ratioP2;P2;SDS_P1;SDS_P2;PMS_P1;PMS_P2;Temp;Humidity;BMP_temperature;BMP_pressure;BME280_temperature;BME280_humidity;BME280_pressure;Samples;Min_cycle;Max_cycle;Signal;HPM_P1;HPM_P2
2022/10/14 04:01:19;;;;;;;12.50;8.47;;;;;;;;;;5499618;23;20649;-75
2022/10/14 04:03:45;;;;;;;14.00;8.73;;;8.40;96.30;;;;;;4937712;29;20435;-75
2022/10/14 04:06:13;;;;;;;10.33;7.53;;;8.40;96.30;;;;;;4936596;29;20419;-75
2022/10/14 04:08:39;;;;;;;12.47;8.63;;;8.30;96.30;;;;;;4928024;29;20423;-75
2022/10/14 04:11:04;;;;;;;19.20;7.87;;;8.30;96.30;;;;;;4936117;29;20478;-75
2022/10/14 04:13:30;;;;;;;13.50;8.03;;;;;;;;;;4937979;29;20442;-75
2022/10/14 04:15:56;;;;;;;13.63;8.07;;;;;;;;;;4944867;29;20176;-75
2022/10/14 04:18:22;;;;;;;13.87;8.40;;;8.20;96.30;;;;;;4937906;29;20238;-75
2022/10/14 04:20:47;;;;;;;14.03;7.77;;;8.20;96.30;;;;;;4929117;29;20999;-75
2022/10/14 04:23:13;;;;;;;19.83;9.30;;;8.20;96.30;;;;;;4927025;29;20202;-75
2022/10/14 04:25:39;;;;;;;14.87;8.00;;;8.20;96.30;;;;;;4928629;29;20553;-75
2022/10/14 04:28:05;;;;;;;11.87;8.13;;;8.20;96.30;;;;;;4928043;29;20190;-75
2022/10/14 04:30:30;;;;;;;9.97;8.00;;;8.30;96.30;;;;;;4926224;29;20472;-75
2022/10/14 04:32:56;;;;;;;11.50;8.03;;;8.30;96.30;;;;;;4926739;29;20176;-75
2022/10/14 04:35:21;;;;;;;12.33;8.10;;;8.30;96.30;;;;;;4923420;29;20187;-75
2022/10/14 04:37:46;;;;;;;11.37;8.57;;;8.30;96.30;;;;;;4917767;29;20520;-75
2022/10/14 04:40:12;;;;;;;10.30;7.50;;;;;;;;;;4925599;29;20271;-75
2022/10/14 04:42:38;;;;;;;16.43;8.70;;;;;;;;;;4927073;29;20187;-75
2022/10/14 04:45:04;;;;;;;12.23;9.73;;;;;;;;;;4918313;29;20543;-77
2022/10/14 04:47:30;;;;;;;18.23;10.50;;;8.20;96.30;;;;;;4915810;29;20428;-75
2022/10/14 04:49:55;;;;;;;19.50;8.83;;;8.20;96.30;;;;;;4918096;29;20420;-75
2022/10/14 04:52:21;;;;;;;11.93;9.50;;;8.20;96.30;;;;;;4919652;29;20204;-74
2022/10/14 04:54:47;;;;;;;16.53;11.40;;;;;;;;;;4936938;29;20247;-74
2022/10/14 04:57:12;;;;;;;14.97;11.37;;;8.20;96.30;;;;;;4935164;29;20167;-74
2022/10/14 04:59:38;;;;;;;15.77;11.10;;;8.20;96.30;;;;;;4936847;29;20420;-74
2022/10/14 05:02:04;;;;;;;20.70;13.10;;;8.20;96.30;;;;;;4936655;29;20239;-74
2022/10/14 05:04:29;;;;;;;11.27;9.73;;;8.20;96.30;;;;;;4936893;29;20443;-74
2022/10/14 05:06:55;;;;;;;16.67;9.33;;;8.20;96.30;;;;;;4936282;29;20212;-74
2022/10/14 05:09:20;;;;;;;17.33;11.60;;;8.20;96.30;;;;;;4935131;29;20187;-74
2022/10/14 05:11:46;;;;;;;11.10;9.80;;;;;;;;;;4936706;29;20247;-75
2022/10/14 05:14:12;;;;;;;11.80;9.90;;;8.10;96.30;;;;;;4937220;29;20171;-74
2022/10/14 05:16:38;;;;;;;14.07;10.87;;;8.10;96.30;;;;;;4936564;29;20179;-74
2022/10/14 05:19:03;;;;;;;14.80;9.57;;;8.10;96.30;;;;;;4936368;29;20168;-74
2022/10/14 05:21:29;;;;;;;12.37;9.10;;;8.10;96.30;;;;;;4936455;29;20239;-75
2022/10/14 05:23:54;;;;;;;14.53;8.90;;;8.10;96.30;;;;;;4936241;29;20262;-74
2022/10/14 05:26:20;;;;;;;17.90;10.83;;;8.20;96.30;;;;;;4936409;29;20266;-75
2022/10/14 05:28:45;;;;;;;11.40;8.87;;;8.20;96.30;;;;;;4928616;29;20179;-74
2022/10/14 05:31:11;;;;;;;12.23;9.13;;;8.10;96.30;;;;;;4936208;29;20248;-75
2022/10/14 05:33:36;;;;;;;13.33;9.87;;;8.10;96.30;;;;;;4936338;29;20674;-75
2022/10/14 05:36:02;;;;;;;12.23;8.47;;;8.10;96.30;;;;;;4930679;29;20184;-75
2022/10/14 05:38:32;;;;;;;10.93;8.30;;;8.20;96.30;;;;;;4917353;29;20180;-75
2022/10/14 05:40:58;;;;;;;11.90;8.60;;;;;;;;;;4916254;29;20211;-75
2022/10/14 05:43:24;;;;;;;11.50;8.57;;;;;;;;;;4904851;29;20428;-75
2022/10/14 05:45:51;;;;;;;11.27;8.07;;;;;;;;;;4914276;29;20443;-75
2022/10/14 05:48:17;;;;;;;12.67;8.50;;;8.30;96.30;;;;;;4931779;29;20448;-74
2022/10/14 05:50:43;;;;;;;12.40;9.20;;;;;;;;;;4919104;29;20475;-76
2022/10/14 05:53:10;;;;;;;16.43;9.40;;;8.40;96.30;;;;;;4904158;29;20420;-74
2022/10/14 05:55:36;;;;;;;12.90;8.60;;;8.40;96.30;;;;;;4931183;29;20811;-74
2022/10/14 05:58:01;;;;;;;12.47;8.40;;;8.40;96.30;;;;;;4928301;29;20435;-74
2022/10/14 06:00:27;;;;;;;11.87;7.97;;;8.40;96.30;;;;;;4921982;29;20195;-75
2022/10/14 06:02:53;;;;;;;18.57;9.03;;;;;;;;;;4919913;29;20211;-75
2022/10/14 06:05:19;;;;;;;11.07;8.77;;;;;;;;;;4916994;29;20683;-75
2022/10/14 06:07:45;;;;;;;15.77;8.70;;;;;;;;;;4919289;29;20835;-74
2022/10/14 06:10:11;;;;;;;12.10;8.60;;;8.60;96.30;;;;;;4931544;29;20503;-74
2022/10/14 06:12:37;;;;;;;15.53;8.43;;;8.60;96.30;;;;;;4932288;29;20499;-75
2022/10/14 06:15:02;;;;;;;10.57;8.53;;;8.70;96.30;;;;;;4931983;29;20172;-75
2022/10/14 06:17:28;;;;;;;12.07;9.80;;;;;;;;;;4930701;29;20176;-75
2022/10/14 06:19:54;;;;;;;12.73;9.27;;;;;;;;;;4912159;29;20188;-75
2022/10/14 06:22:20;;;;;;;15.40;13.00;;;8.90;96.30;;;;;;4913304;29;20991;-75
2022/10/14 06:24:46;;;;;;;13.87;9.13;;;9.00;96.30;;;;;;4922544;29;20428;-75
2022/10/14 06:27:11;;;;;;;15.70;10.40;;;9.00;96.30;;;;;;4924150;29;20279;-74
2022/10/14 06:29:37;;;;;;;10.97;8.80;;;9.10;96.30;;;;;;4922626;29;20184;-76
2022/10/14 06:32:07;;;;;;;15.27;9.00;;;9.20;96.30;;;;;;4926147;29;20216;-75
2022/10/14 06:34:33;;;;;;;16.43;8.93;;;;;;;;;;4919647;29;20171;-74
2022/10/14 06:37:00;;;;;;;13.43;9.70;;;9.80;96.30;;;;;;4917949;29;20992;-75
2022/10/14 06:39:25;;;;;;;12.70;7.67;;;10.00;96.30;;;;;;4925850;29;20424;-76
2022/10/14 06:41:52;;;;;;;14.77;10.33;;;;;;;;;;4921452;29;20462;-75
2022/10/14 06:44:19;;;;;;;14.33;8.00;;;10.20;96.30;;;;;;4925176;29;20193;-76
2022/10/14 06:46:44;;;;;;;11.77;7.63;;;10.20;96.30;;;;;;4919804;29;20943;-75
2022/10/14 06:49:10;;;;;;;17.40;7.17;;;10.30;96.30;;;;;;4913629;29;20428;-75
2022/10/14 06:51:37;;;;;;;10.23;6.83;;;10.30;96.30;;;;;;4921147;29;20226;-75
2022/10/14 06:54:03;;;;;;;9.60;6.83;;;10.50;96.30;;;;;;4916441;29;20176;-75
2022/10/14 06:56:28;;;;;;;10.50;8.37;;;10.50;96.30;;;;;;4913160;29;20483;-74
2022/10/14 06:58:55;;;;;;;9.60;7.23;;;10.50;96.30;;;;;;4922313;29;20192;-74
2022/10/14 07:01:21;;;;;;;8.83;6.87;;;10.50;96.30;;;;;;4925860;29;21543;-74
2022/10/14 07:03:47;;;;;;;11.43;7.60;;;10.60;96.30;;;;;;4918457;29;20428;-74
2022/10/14 07:06:13;;;;;;;10.27;6.13;;;10.60;96.30;;;;;;4923294;29;20493;-74
2022/10/14 07:08:38;;;;;;;9.50;6.23;;;10.80;96.30;;;;;;4920729;29;20629;-74
2022/10/14 07:11:04;;;;;;;11.57;6.80;;;10.90;96.30;;;;;;4921575;29;20283;-75
2022/10/14 07:13:30;;;;;;;12.90;7.10;;;11.10;96.30;;;;;;4924340;29;20180;-74
2022/10/14 07:15:56;;;;;;;14.07;6.80;;;;;;;;;;4922249;29;20426;-74
2022/10/14 07:18:22;;;;;;;8.73;6.83;;;11.30;96.30;;;;;;4917583;29;20466;-74
2022/10/14 07:20:48;;;;;;;10.00;7.40;;;;;;;;;;4910491;29;20873;-74
2022/10/14 07:23:14;;;;;;;18.03;6.80;;;11.70;96.30;;;;;;4923719;29;20675;-74
2022/10/14 07:25:39;;;;;;;12.20;6.90;;;11.80;96.30;;;;;;4927319;29;20419;-74
2022/10/14 07:28:05;;;;;;;12.00;6.27;;;11.70;96.30;;;;;;4915550;29;20187;-75
2022/10/14 07:30:31;;;;;;;6.13;4.57;;;11.80;96.30;;;;;;4927850;29;20215;-75
2022/10/14 07:33:00;;;;;;;9.37;6.03;;;11.80;96.30;;;;;;4908061;29;20192;-75
2022/10/14 07:35:26;;;;;;;8.50;5.90;;;11.80;96.30;;;;;;4919276;29;20434;-74
2022/10/14 07:37:52;;;;;;;11.97;6.30;;;11.90;96.30;;;;;;4919721;29;20428;-74
2022/10/14 07:40:18;;;;;;;7.60;5.70;;;12.00;96.30;;;;;;4924594;29;20180;-74
2022/10/14 07:42:44;;;;;;;14.53;10.20;;;;;;;;;;4918743;29;20780;-74
2022/10/14 07:45:15;;;;;;;13.50;8.60;;;12.40;96.30;;;;;;4920933;29;20549;-74
2022/10/14 07:47:46;;;;;;;8.00;5.60;;;12.40;96.30;;;;;;4916527;29;20420;-74
2022/10/14 07:50:11;;;;;;;9.60;6.50;;;12.60;96.30;;;;;;4918531;29;20427;-74
2022/10/14 07:52:37;;;;;;;8.70;5.53;;;12.80;96.30;;;;;;4920842;29;20491;-74
2022/10/14 07:55:04;;;;;;;8.80;4.20;;;13.00;96.30;;;;;;4916924;29;20540;-75
2022/10/14 07:57:30;;;;;;;5.77;4.50;;;;;;;;;;4924020;29;20417;-75
2022/10/14 07:59:56;;;;;;;21.20;4.70;;;13.30;96.30;;;;;;4925267;29;20988;-74
2022/10/14 08:02:22;;;;;;;6.30;4.30;;;13.40;96.30;;;;;;4927402;29;20235;-74
2022/10/14 08:04:52;;;;;;;8.80;4.53;;;13.40;96.30;;;;;;4926929;29;20180;-74
2022/10/14 08:07:17;;;;;;;5.17;3.90;;;13.40;96.30;;;;;;4927979;29;20428;-74
2022/10/14 08:09:43;;;;;;;6.60;4.07;;;13.40;96.30;;;;;;4925276;29;20430;-74
2022/10/14 08:12:09;;;;;;;7.40;3.70;;;13.30;96.30;;;;;;4925741;29;20755;-75
2022/10/14 08:14:34;;;;;;;5.30;4.30;;;13.20;96.30;;;;;;4924002;29;20213;-74
2022/10/14 08:17:00;;;;;;;6.20;4.37;;;13.20;96.30;;;;;;4921963;29;20191;-74
2022/10/14 08:19:26;;;;;;;4.67;4.00;;;13.00;96.30;;;;;;4927934;29;20531;-74
2022/10/14 08:21:52;;;;;;;5.63;4.17;;;12.90;96.30;;;;;;4925915;29;20735;-74
2022/10/14 08:24:18;;;;;;;4.93;4.30;;;12.80;96.30;;;;;;4928514;29;20694;-75
2022/10/14 08:26:55;;;;;;;5.33;4.13;;;12.60;96.30;;;;;;4926337;29;20420;-75
2022/10/14 08:29:21;;;;;;;4.93;4.43;;;12.40;96.30;;;;;;4920910;29;20188;-75
2022/10/14 08:31:47;;;;;;;11.50;4.83;;;12.30;96.30;;;;;;4912734;29;21441;-77
2022/10/14 08:34:13;;;;;;;6.60;4.43;;;12.20;96.30;;;;;;4924664;29;20187;-77
2022/10/14 08:36:39;;;;;;;5.83;5.00;;;12.10;96.30;;;;;;4927295;29;20435;-77
2022/10/14 08:39:05;;;;;;;6.20;4.90;;;12.00;96.30;;;;;;4926210;29;20419;-76
2022/10/14 08:41:38;;;;;;;10.80;4.90;;;;;;;;;;4925342;29;20214;-76
2022/10/14 08:44:16;;;;;;;6.77;4.53;;;;;;;;;;4923537;29;20408;-75
2022/10/14 08:46:51;;;;;;;8.03;5.03;;;12.10;96.30;;;;;;4922514;29;20415;-76
2022/10/14 08:49:26;;;;;;;8.17;5.50;;;12.20;96.30;;;;;;4930363;29;20494;-75
2022/10/14 08:52:11;;;;;;;7.57;5.67;;;12.30;96.30;;;;;;4935532;29;20474;-75
2022/10/14 08:54:49;;;;;;;12.20;5.40;;;12.50;96.30;;;;;;4930404;29;20524;-75
2022/10/14 08:57:25;;;;;;;7.40;6.53;;;12.60;96.30;;;;;;4917558;29;20444;-75
2022/10/14 08:59:51;;;;;;;7.60;5.93;;;12.60;96.30;;;;;;4930140;29;20906;-75
2022/10/14 09:02:47;;;;;;;9.23;5.97;;;12.90;96.30;;;;;;4936289;29;20459;-75
2022/10/14 09:05:16;;;;;;;9.50;5.57;;;13.10;96.30;;;;;;4937045;29;20187;-75
2022/10/14 09:07:43;;;;;;;6.70;5.80;;;13.30;96.30;;;;;;4930312;29;20428;-75
2022/10/14 09:10:21;;;;;;;9.03;6.10;;;13.40;96.30;;;;;;4927817;29;20429;-76
2022/10/14 09:12:47;;;;;;;9.40;5.90;;;;;;;;;;4934405;29;20843;-75
2022/10/14 09:15:21;;;;;;;10.13;6.73;;;13.60;96.30;;;;;;4921307;29;20426;-75
2022/10/14 09:17:51;;;;;;;13.73;5.80;;;13.90;96.30;;;;;;4924798;29;20671;-75
2022/10/14 09:20:21;;;;;;;8.23;6.00;;;14.10;96.30;;;;;;4925304;29;20821;-75
2022/10/14 09:22:58;;;;;;;6.97;6.27;;;14.20;96.30;;;;;;4928046;29;20428;-75
2022/10/14 09:25:24;;;;;;;8.40;7.20;;;14.40;96.30;;;;;;4930639;29;21256;-75
2022/10/14 09:27:49;;;;;;;6.80;5.97;;;14.70;96.30;;;;;;4930083;29;20497;-75
2022/10/14 09:30:16;;;;;;;7.37;5.40;;;15.30;96.30;;;;;;4926999;29;20276;-75
2022/10/14 09:32:51;;;;;;;6.53;5.83;;;15.10;96.30;;;;;;4929569;29;20172;-75
2022/10/14 09:35:23;;;;;;;7.23;5.30;;;14.80;96.30;;;;;;4925481;29;20440;-75
2022/10/14 09:37:48;;;;;;;11.30;5.57;;;14.80;96.30;;;;;;4927025;29;20412;-75
2022/10/14 09:40:38;;;;;;;8.17;5.37;;;14.90;96.30;;;;;;4922464;29;20428;-75
2022/10/14 09:43:09;;;;;;;8.10;5.40;;;14.90;96.30;;;;;;4927067;29;20282;-75
2022/10/14 09:45:48;;;;;;;5.80;4.57;;;15.10;96.30;;;;;;4927064;29;20764;-75
2022/10/14 09:48:32;;;;;;;5.33;4.80;;;15.30;96.30;;;;;;4924130;29;20412;-75
2022/10/14 09:51:01;;;;;;;9.43;5.00;;;15.20;96.30;;;;;;4925026;29;20507;-75
2022/10/14 09:53:31;;;;;;;6.53;5.07;;;15.20;96.30;;;;;;4917885;29;20913;-75
2022/10/14 09:55:59;;;;;;;5.60;4.40;;;14.90;96.30;;;;;;4916364;29;20944;-75
2022/10/14 09:58:37;;;;;;;5.07;4.27;;;14.90;96.30;;;;;;4919567;29;20431;-75
2022/10/14 10:01:03;;;;;;;6.93;4.70;;;15.10;96.30;;;;;;4916364;29;20467;-75
2022/10/14 10:03:32;;;;;;;7.57;4.50;;;15.20;96.30;;;;;;4921825;29;20938;-75
2022/10/14 10:06:09;;;;;;;6.33;4.63;;;15.50;96.30;;;;;;4916363;29;20176;-75
2022/10/14 10:08:52;;;;;;;10.20;5.30;;;15.60;96.30;;;;;;4933366;29;20426;-75
2022/10/14 10:11:38;;;;;;;8.37;4.67;;;15.90;96.30;;;;;;4918613;29;20464;-75
2022/10/14 10:14:22;;;;;;;8.83;4.27;;;16.10;96.30;;;;;;4932738;29;20419;-75
2022/10/14 10:17:15;;;;;;;6.00;4.00;;;16.10;96.30;;;;;;4928734;29;20436;-75
2022/10/14 10:19:43;;;;;;;4.27;3.87;;;16.30;96.30;;;;;;4918456;29;20480;-75
2022/10/14 10:22:27;;;;;;;4.60;3.87;;;16.50;96.30;;;;;;4933928;29;20811;-76
2022/10/14 10:25:02;;;;;;;4.90;3.30;;;16.80;96.30;;;;;;4921166;29;20469;-75
2022/10/14 10:27:35;;;;;;;4.90;4.27;;;16.70;96.30;;;;;;4926625;29;20967;-75
2022/10/14 10:30:27;;;;;;;6.03;3.27;;;16.40;96.30;;;;;;4928936;29;20429;-75
2022/10/14 10:33:02;;;;;;;4.43;4.03;;;15.80;96.30;;;;;;4916512;29;20413;-75
2022/10/14 10:35:54;;;;;;;3.80;3.40;;;15.70;96.30;;;;;;4915552;29;20409;-75
2022/10/14 10:38:45;;;;;;;4.43;3.00;;;15.30;96.30;;;;;;4915108;29;21019;-75
2022/10/14 11:33:11;;;;;;;3.40;2.70;;;15.40;96.30;;;;;;4575123;23;20499;-74
2022/10/14 12:39:32;;;;;;;1.90;1.70;;;16.00;96.30;;;;;;5042692;28;20844;-74
2022/10/14 13:06:35;;;;;;;2.37;1.70;;;;;;;;;;5015682;28;20494;-75
2022/10/14 13:09:14;;;;;;;1.60;1.50;;;15.90;96.30;;;;;;5012177;28;20813;-74
2022/10/14 13:11:40;;;;;;;10.23;2.27;;;16.00;96.30;;;;;;5013976;28;20466;-74
2022/10/14 13:14:28;;;;;;;5.10;2.00;;;16.10;96.30;;;;;;5012687;28;20570;-75
2022/10/14 13:16:57;;;;;;;1.70;1.60;;;16.50;96.30;;;;;;5013808;28;20412;-75
2022/10/14 13:19:32;;;;;;;1.73;1.60;;;16.70;96.30;;;;;;5014213;28;20404;-75
2022/10/14 13:21:59;;;;;;;2.53;1.70;;;16.70;96.30;;;;;;5013834;28;20454;-75
2022/10/14 13:24:42;;;;;;;4.50;2.83;;;16.80;96.30;;;;;;5013955;28;20419;-75
2022/10/14 13:27:39;;;;;;;3.20;2.53;;;16.60;96.30;;;;;;5013649;28;20427;-76
2022/10/14 13:30:22;;;;;;;2.23;1.20;;;16.80;96.30;;;;;;5013838;28;20403;-75
2022/10/14 13:33:13;;;;;;;3.73;1.43;;;17.10;96.30;;;;;;5013679;28;20408;-75
2022/10/14 13:35:55;;;;;;;2.07;1.13;;;17.40;96.30;;;;;;5013904;28;20457;-75
2022/10/14 13:38:23;;;;;;;1.10;1.00;;;17.20;96.30;;;;;;5012107;28;20473;-75
2022/10/14 13:40:53;;;;;;;1.10;0.90;;;17.10;96.30;;;;;;5013547;28;20432;-76
2022/10/14 13:43:27;;;;;;;1.20;1.00;;;17.00;96.30;;;;;;5013635;28;20416;-74
2022/10/14 13:45:56;;;;;;;1.00;0.90;;;16.80;96.30;;;;;;5011924;28;20430;-74
2022/10/14 13:48:39;;;;;;;1.20;1.03;;;16.80;96.30;;;;;;5013319;28;20442;-74
2022/10/14 13:51:25;;;;;;;1.90;1.07;;;16.80;96.30;;;;;;5009842;28;21027;-75
2022/10/14 13:54:07;;;;;;;1.83;1.40;;;17.00;96.30;;;;;;5002230;28;20427;-73
2022/10/14 13:56:32;;;;;;;3.63;1.80;;;17.00;96.30;;;;;;5005829;28;20904;-73
2022/10/14 13:58:58;;;;;;;1.93;1.10;;;17.10;96.30;;;;;;5013050;28;20439;-74
2022/10/14 14:01:33;;;;;;;2.13;1.17;;;17.20;96.30;;;;;;4995418;28;20212;-74
2022/10/14 14:03:59;;;;;;;3.20;1.50;;;17.40;96.30;;;;;;4992984;28;20931;-75
2022/10/14 14:06:26;;;;;;;1.60;1.13;;;17.30;96.30;;;;;;4993598;28;20419;-76
2022/10/14 14:09:03;;;;;;;3.73;1.10;;;17.70;96.30;;;;;;4992518;28;20444;-76
2022/10/14 14:11:35;;;;;;;1.30;1.20;;;18.00;96.30;;;;;;4993408;28;20488;-74
2022/10/14 14:14:37;;;;;;;1.10;1.00;;;17.90;96.30;;;;;;4993307;28;20926;-75
2022/10/14 14:17:11;;;;;;;2.27;1.10;;;17.30;96.30;;;;;;4980397;28;20465;-74
2022/10/14 14:19:41;;;;;;;1.20;1.10;;;17.50;96.30;;;;;;4991921;28;20413;-74
2022/10/14 14:22:19;;;;;;;1.53;1.30;;;17.60;96.30;;;;;;4992050;28;20437;-76
2022/10/14 14:24:46;;;;;;;16.00;9.30;;;17.80;96.30;;;;;;4991621;28;20426;-76
2022/10/14 14:27:14;;;;;;;11.50;6.70;;;18.00;96.30;;;;;;4992588;28;20420;-76
2022/10/14 14:29:42;;;;;;;1.37;1.27;;;17.60;96.30;;;;;;4992023;28;20429;-75
2022/10/14 14:32:17;;;;;;;2.00;1.43;;;17.20;96.30;;;;;;4991263;28;20475;-77
2022/10/14 14:34:45;;;;;;;2.13;1.80;;;17.40;96.30;;;;;;4975714;28;20440;-75
2022/10/14 14:37:23;;;;;;;1.50;1.00;;;17.30;96.30;;;;;;4991898;28;20467;-75
2022/10/14 14:39:59;;;;;;;1.40;1.30;;;17.10;96.30;;;;;;5011845;28;20412;-75
2022/10/14 14:42:26;;;;;;;1.63;1.50;;;17.00;96.30;;;;;;5012326;28;20446;-75
2022/10/14 14:44:56;;;;;;;1.67;1.43;;;16.90;96.30;;;;;;5012445;28;20422;-74
2022/10/14 14:47:22;;;;;;;2.23;1.50;;;16.60;96.30;;;;;;5011749;28;20904;-74
2022/10/14 14:49:48;;;;;;;2.80;1.50;;;16.30;96.30;;;;;;4998704;28;20440;-75
2022/10/14 14:52:14;;;;;;;1.50;1.40;;;15.90;96.30;;;;;;5007381;28;21022;-74
2022/10/14 14:54:45;;;;;;;6.03;2.00;;;15.60;96.30;;;;;;4992805;28;20416;-75
2022/10/14 14:57:15;;;;;;;1.70;1.50;;;15.50;96.30;;;;;;4991948;28;20412;-75
2022/10/14 14:59:43;;;;;;;4.40;1.77;;;15.40;96.30;;;;;;4999413;28;21004;-75
2022/10/14 15:02:14;;;;;;;3.03;1.80;;;15.30;96.30;;;;;;4994159;28;20441;-76
2022/10/14 15:04:41;;;;;;;3.27;1.50;;;;;;;;;;5000763;28;20486;-73
2022/10/14 15:07:17;;;;;;;4.87;1.67;;;15.30;96.30;;;;;;5004770;28;20423;-73
2022/10/14 15:09:45;;;;;;;1.90;1.50;;;15.30;96.30;;;;;;4992185;28;20510;-73
2022/10/14 15:12:40;;;;;;;2.30;1.80;;;15.30;96.30;;;;;;4992467;28;20492;-73
2022/10/14 15:15:25;;;;;;;2.23;1.90;;;15.30;96.30;;;;;;4988951;28;20422;-73
2022/10/14 15:18:06;;;;;;;3.00;2.10;;;15.20;96.30;;;;;;5011800;28;20751;-73
2022/10/14 15:20:36;;;;;;;1.97;1.73;;;15.00;96.30;;;;;;5012070;28;20404;-73
2022/10/14 15:23:41;;;;;;;3.20;1.80;;;15.10;96.30;;;;;;5001310;28;20447;-72
2022/10/14 15:26:20;;;;;;;1.60;1.50;;;;;;;;;;5006586;28;20462;-72
2022/10/14 15:28:46;;;;;;;6.40;1.97;;;15.00;96.30;;;;;;4997728;28;20436;-73
2022/10/14 15:31:15;;;;;;;3.40;1.83;;;14.90;96.30;;;;;;4989312;28;20460;-72
2022/10/14 15:33:41;;;;;;;2.03;1.90;;;;;;;;;;4989788;28;20173;-73
2022/10/14 15:36:10;;;;;;;5.67;3.70;;;14.70;96.30;;;;;;4989454;28;20436;-73
2022/10/14 15:38:36;;;;;;;7.70;3.50;;;14.60;96.30;;;;;;4989716;28;20405;-73
2022/10/14 15:41:04;;;;;;;2.07;1.80;;;14.60;96.30;;;;;;4989969;28;20443;-73
2022/10/14 15:43:31;;;;;;;2.47;2.20;;;;;;;;;;4990167;28;20181;-72
2022/10/14 15:48:47;;;;;;;3.20;2.27;;;;;;;;;;4989563;28;20955;-72
2022/10/14 15:51:22;;;;;;;4.33;2.77;;;14.20;96.30;;;;;;4989903;28;21182;-73
2022/10/14 15:53:48;;;;;;;2.97;1.90;;;14.20;96.30;;;;;;4988392;28;20909;-73
2022/10/14 15:56:15;;;;;;;5.23;2.30;;;;;;;;;;5001643;28;20840;-73
2022/10/14 15:58:41;;;;;;;2.43;2.07;;;14.10;96.30;;;;;;5002289;28;20413;-73
2022/10/14 16:01:07;;;;;;;2.67;2.47;;;;;;;;;;4992135;28;20527;-72
2022/10/14 16:03:33;;;;;;;7.87;2.97;;;;;;;;;;5004519;28;20247;-74
2022/10/14 16:05:59;;;;;;;2.30;2.07;;;;;;;;;;4999370;28;20452;-74
2022/10/14 16:08:25;;;;;;;5.70;2.10;;;13.80;96.30;;;;;;4992236;28;20197;-75
2022/10/14 16:10:53;;;;;;;2.63;2.30;;;13.60;96.30;;;;;;4993010;28;20559;-74
2022/10/14 16:13:19;;;;;;;10.90;5.57;;;13.60;96.30;;;;;;4992969;28;20417;-74
2022/10/14 16:15:53;;;;;;;17.20;15.40;;;13.50;96.30;;;;;;4993232;28;20822;-75
2022/10/14 16:18:21;;;;;;;52.27;40.87;;;13.50;96.30;;;;;;4991520;28;20201;-75
2022/10/14 16:25:59;;;;;;;69.77;42.37;;;;;;;;;;5776882;23;20501;-73
2022/10/14 16:28:24;;;;;;;27.63;16.67;;;13.40;96.30;;;;;;5033624;28;20407;-73
2022/10/14 16:30:50;;;;;;;43.40;31.77;;;13.40;96.30;;;;;;5029452;28;20455;-73
2022/10/14 16:33:23;;;;;;;16.33;13.13;;;13.40;96.30;;;;;;5014957;28;20192;-73
2022/10/14 16:35:51;;;;;;;8.40;6.87;;;13.40;96.30;;;;;;5013495;28;20169;-74
2022/10/14 16:38:17;;;;;;;7.10;5.00;;;13.30;96.30;;;;;;5014139;28;20415;-73
2022/10/14 16:40:43;;;;;;;5.90;2.50;;;13.20;96.30;;;;;;4997132;28;20443;-73
2022/10/14 16:43:09;;;;;;;5.70;2.33;;;13.10;96.30;;;;;;5014528;28;20256;-74
2022/10/14 16:45:35;;;;;;;6.23;2.87;;;;;;;;;;5014317;28;20199;-73
2022/10/14 16:48:00;;;;;;;4.23;2.40;;;13.00;96.30;;;;;;5013999;28;20181;-73
2022/10/14 16:50:26;;;;;;;4.53;2.00;;;12.90;96.30;;;;;;5014440;28;20419;-73
2022/10/14 16:55:38;;;;;;;2.73;2.40;;;12.90;96.30;;;;;;5014435;28;20171;-73
2022/10/14 16:58:04;;;;;;;7.00;3.00;;;12.90;96.30;;;;;;4994704;28;20430;-73
2022/10/14 17:00:29;;;;;;;3.27;2.57;;;12.90;96.30;;;;;;5003197;28;20409;-73
2022/10/14 17:02:55;;;;;;;7.97;7.17;;;12.90;96.30;;;;;;4986110;28;20822;-73
2022/10/14 17:05:20;;;;;;;11.17;7.60;;;12.80;96.30;;;;;;5014341;28;20621;-73
2022/10/14 17:07:46;;;;;;;8.03;4.03;;;12.80;96.30;;;;;;4999861;28;20228;-73
2022/10/14 17:10:12;;;;;;;4.93;4.43;;;;;;;;;;4994621;28;20236;-73
2022/10/14 17:12:38;;;;;;;4.87;3.90;;;12.80;96.30;;;;;;4994411;28;20219;-73
2022/10/14 17:15:04;;;;;;;4.43;3.97;;;12.80;96.30;;;;;;4998271;28;20408;-74
2022/10/14 17:17:30;;;;;;;4.50;4.10;;;12.80;96.30;;;;;;5013356;28;20462;-74
2022/10/14 17:19:56;;;;;;;7.43;4.30;;;12.90;96.30;;;;;;5014102;28;20446;-74
2022/10/14 17:22:22;;;;;;;6.00;4.77;;;;;;;;;;5013859;28;20796;-73
2022/10/14 17:24:48;;;;;;;18.63;14.37;;;12.90;96.30;;;;;;5014013;28;20173;-73
2022/10/14 17:27:17;;;;;;;8.87;7.30;;;12.80;96.30;;;;;;5013657;28;20442;-73
2022/10/14 17:29:43;;;;;;;8.70;6.70;;;12.70;96.30;;;;;;5013867;28;20416;-73
2022/10/14 17:32:08;;;;;;;6.00;5.40;;;12.60;96.30;;;;;;5012571;28;20525;-74
2022/10/14 17:34:34;;;;;;;10.57;4.93;;;12.50;96.30;;;;;;4992363;28;20950;-73
2022/10/14 17:36:59;;;;;;;9.90;4.67;;;12.60;96.30;;;;;;5010679;28;20196;-73
2022/10/14 17:39:25;;;;;;;10.27;5.13;;;12.60;96.30;;;;;;5011259;28;20173;-73
2022/10/14 17:41:51;;;;;;;3.83;3.50;;;12.70;96.30;;;;;;5011280;28;20284;-73
2022/10/14 17:44:17;;;;;;;5.60;4.80;;;12.70;96.30;;;;;;5011442;28;20552;-74
2022/10/14 17:46:43;;;;;;;6.03;4.40;;;12.70;96.30;;;;;;5010968;28;20424;-73
2022/10/14 17:49:09;;;;;;;7.87;6.60;;;12.60;96.30;;;;;;5011370;28;20756;-72
2022/10/14 17:51:36;;;;;;;17.77;8.57;;;12.70;96.30;;;;;;5009230;28;20212;-73
2022/10/14 17:54:04;;;;;;;5.63;3.70;;;12.60;96.30;;;;;;5011084;28;20496;-73
2022/10/14 17:56:32;;;;;;;6.90;4.00;;;12.70;96.30;;;;;;5011146;28;20771;-73
2022/10/14 17:59:01;;;;;;;4.07;3.63;;;12.70;96.30;;;;;;4992866;28;20408;-73
2022/10/14 18:01:28;;;;;;;5.50;3.87;;;12.70;96.30;;;;;;5005769;28;20534;-75
2022/10/14 18:03:55;;;;;;;9.70;4.50;;;12.70;96.30;;;;;;5013046;28;20408;-74
2022/10/14 18:06:29;;;;;;;7.40;3.93;;;12.70;96.30;;;;;;5012767;28;20452;-74
2022/10/14 18:09:00;;;;;;;7.40;5.97;;;12.60;96.30;;;;;;5013824;28;20493;-74
2022/10/14 18:11:27;;;;;;;5.60;4.00;;;12.60;96.30;;;;;;4993920;28;20599;-74
2022/10/14 18:13:55;;;;;;;8.17;3.77;;;12.50;96.30;;;;;;4993145;28;20408;-75
2022/10/14 18:16:23;;;;;;;4.87;4.10;;;;;;;;;;4993163;28;20420;-74
2022/10/14 18:18:50;;;;;;;6.47;4.20;;;12.40;96.30;;;;;;4992632;28;20994;-74
2022/10/14 18:21:16;;;;;;;6.40;3.90;;;;;;;;;;4992708;28;20535;-74
2022/10/14 18:23:42;;;;;;;5.17;4.13;;;12.40;96.30;;;;;;4992247;28;20517;-75
2022/10/14 18:26:15;;;;;;;6.57;4.40;;;12.40;96.30;;;;;;4992589;28;20238;-75
2022/10/14 18:28:43;;;;;;;6.53;3.60;;;12.40;96.30;;;;;;4991865;28;20197;-74
2022/10/14 18:31:10;;;;;;;6.37;4.13;;;12.40;96.30;;;;;;4974389;28;20607;-75
2022/10/14 18:33:37;;;;;;;6.17;5.40;;;;;;;;;;4974013;28;20424;-75
2022/10/14 18:36:05;;;;;;;7.23;5.43;;;12.30;96.30;;;;;;4991689;28;20495;-74
2022/10/14 18:38:31;;;;;;;6.67;4.90;;;;;;;;;;4991212;28;20404;-75
2022/10/14 18:40:59;;;;;;;8.50;6.00;;;12.30;96.30;;;;;;4974212;28;20440;-75
2022/10/14 18:43:24;;;;;;;8.93;6.23;;;12.20;96.30;;;;;;4991022;28;20423;-75
2022/10/14 18:45:50;;;;;;;30.90;14.67;;;12.20;96.30;;;;;;4991080;28;20416;-74
2022/10/14 18:48:19;;;;;;;10.33;7.37;;;12.30;96.30;;;;;;4973585;28;20181;-75
2022/10/14 18:50:44;;;;;;;16.00;8.97;;;12.30;96.30;;;;;;4974293;28;20441;-75
2022/10/14 18:53:11;;;;;;;8.80;6.13;;;12.30;96.30;;;;;;4990408;28;20436;-75
2022/10/14 18:55:38;;;;;;;26.67;6.67;;;12.30;96.30;;;;;;4990592;28;20739;-75
2022/10/14 18:58:04;;;;;;;10.90;6.50;;;;;;;;;;4991746;28;20936;-75
2022/10/14 19:00:29;;;;;;;9.13;5.50;;;12.30;96.30;;;;;;4990384;28;20444;-74
2022/10/14 19:02:55;;;;;;;11.80;6.30;;;;;;;;;;4991931;28;20181;-74
2022/10/14 19:05:21;;;;;;;9.50;6.33;;;12.40;96.30;;;;;;4973983;28;20217;-75
2022/10/14 19:07:48;;;;;;;9.13;6.40;;;;;;;;;;4991177;28;20409;-75
2022/10/14 19:10:14;;;;;;;10.10;6.90;;;;;;;;;;4973629;28;20189;-75
2022/10/14 19:12:42;;;;;;;12.80;6.10;;;12.40;96.30;;;;;;4991311;28;21129;-75
2022/10/14 19:15:09;;;;;;;17.43;8.33;;;12.30;96.30;;;;;;4991732;28;21163;-75
2022/10/14 19:17:35;;;;;;;8.33;6.37;;;12.30;96.30;;;;;;4990668;28;20413;-75
2022/10/14 19:20:00;;;;;;;10.77;6.10;;;12.20;96.30;;;;;;4990987;28;20416;-74
2022/10/14 19:22:26;;;;;;;9.10;6.17;;;;;;;;;;4990356;28;20193;-75
2022/10/14 19:24:52;;;;;;;13.60;6.57;;;12.20;96.30;;;;;;4973632;28;20821;-75
2022/10/14 19:27:17;;;;;;;8.27;6.20;;;12.30;96.30;;;;;;4990421;28;20665;-74
2022/10/14 19:29:43;;;;;;;8.70;6.90;;;12.30;96.30;;;;;;4990863;28;20248;-74
2022/10/14 19:32:09;;;;;;;7.80;6.00;;;12.30;96.30;;;;;;4990270;28;20216;-74
2022/10/14 19:34:35;;;;;;;11.67;6.03;;;;;;;;;;5000729;28;20411;-75
2022/10/14 19:37:01;;;;;;;6.67;5.83;;;;;;;;;;5028209;28;20176;-74
2022/10/14 19:39:27;;;;;;;7.43;5.63;;;;;;;;;;5036943;28;20165;-74
2022/10/14 19:41:53;;;;;;;11.27;6.83;;;;;;;;;;5019955;28;20451;-73